sensor_id;sensor_type;location;lat;lon;timestamp;temperature;humidity
22471;DHT22;11402;51.374;6.594;2023-07-24T00:00:57;18.80;99.90
22471;DHT22;11402;51.374;6.594;2023-07-24T00:03:23;18.70;99.90
22471;DHT22;11402;51.374;6.594;2023-07-24T00:05:48;18.60;99.90
22471;DHT22;11402;51.374;6.594;2023-07-24T00:08:14;18.60;99.90
22471;DHT22;11402;51.374;6.594;2023-07-24T00:10:39;18.50;99.90
22471;DHT22;11402;51.374;6.594;2023-07-24T00:13:05;18.50;99.90
22471;DHT22;11402;51.374;6.594;2023-07-24T00:15:30;18.40;99.90
22471;DHT22;11402;51.374;6.594;2023-07-24T00:17:56;18.30;99.90
22471;DHT22;11402;51.374;6.594;2023-07-24T00:20:21;18.40;99.90
22471;DHT22;11402;51.374;6.594;2023-07-24T00:22:49;18.50;99.90
22471;DHT22;11402;51.374;6.594;2023-07-24T00:25:15;18.40;99.90
22471;DHT22;11402;51.374;6.594;2023-07-24T00:27:40;18.40;99.90
22471;DHT22;11402;51.374;6.594;2023-07-24T00:30:07;18.30;99.90
22471;DHT22;11402;51.374;6.594;2023-07-24T00:32:32;18.40;99.90
22471;DHT22;11402;51.374;6.594;2023-07-24T00:34:58;18.30;99.90
22471;DHT22;11402;51.374;6.594;2023-07-24T00:37:24;18.30;99.90
22471;DHT22;11402;51.374;6.594;2023-07-24T00:39:50;18.20;99.90
22471;DHT22;11402;51.374;6.594;2023-07-24T00:42:15;18.30;99.90
22471;DHT22;11402;51.374;6.594;2023-07-24T00:44:41;18.30;99.90
22471;DHT22;11402;51.374;6.594;2023-07-24T00:47:07;18.30;99.90
22471;DHT22;11402;51.374;6.594;2023-07-24T00:49:34;18.20;99.90
22471;DHT22;11402;51.374;6.594;2023-07-24T00:51:59;18.20;99.90
22471;DHT22;11402;51.374;6.594;2023-07-24T00:54:27;18.20;99.90
22471;DHT22;11402;51.374;6.594;2023-07-24T00:56:54;18.20;99.90
22471;DHT22;11402;51.374;6.594;2023-07-24T00:59:20;18.10;99.90
22471;DHT22;11402;51.374;6.594;2023-07-24T01:01:46;18.10;99.90
22471;DHT22;11402;51.374;6.594;2023-07-24T01:04:14;18.20;99.90
22471;DHT22;11402;51.374;6.594;2023-07-24T01:06:40;18.20;99.90
22471;DHT22;11402;51.374;6.594;2023-07-24T01:09:05;18.10;99.90
22471;DHT22;11402;51.374;6.594;2023-07-24T01:11:43;18.10;99.90
22471;DHT22;11402;51.374;6.594;2023-07-24T01:14:24;18.00;99.90
22471;DHT22;11402;51.374;6.594;2023-07-24T01:16:54;18.10;99.90
22471;DHT22;11402;51.374;6.594;2023-07-24T01:19:42;18.10;99.90
22471;DHT22;11402;51.374;6.594;2023-07-24T01:24:52;18.20;99.90
22471;DHT22;11402;51.374;6.594;2023-07-24T01:27:26;18.20;99.90
22471;DHT22;11402;51.374;6.594;2023-07-24T01:29:51;18.30;99.90
22471;DHT22;11402;51.374;6.594;2023-07-24T01:32:18;18.30;99.90
22471;DHT22;11402;51.374;6.594;2023-07-24T01:34:44;18.20;99.90
22471;DHT22;11402;51.374;6.594;2023-07-24T01:37:11;18.30;99.90
22471;DHT22;11402;51.374;6.594;2023-07-24T01:39:38;18.30;99.90
22471;DHT22;11402;51.374;6.594;2023-07-24T01:42:05;18.20;99.90
22471;DHT22;11402;51.374;6.594;2023-07-24T01:44:31;18.20;99.90
22471;DHT22;11402;51.374;6.594;2023-07-24T01:46:56;18.20;99.90
22471;DHT22;11402;51.374;6.594;2023-07-24T01:49:22;18.30;99.90
22471;DHT22;11402;51.374;6.594;2023-07-24T01:51:47;18.20;99.90
22471;DHT22;11402;51.374;6.594;2023-07-24T01:54:13;18.20;99.90
22471;DHT22;11402;51.374;6.594;2023-07-24T01:56:39;18.20;99.90
22471;DHT22;11402;51.374;6.594;2023-07-24T01:59:05;18.10;99.90
22471;DHT22;11402;51.374;6.594;2023-07-24T02:01:31;18.10;99.90
22471;DHT22;11402;51.374;6.594;2023-07-24T02:03:57;18.10;99.90
22471;DHT22;11402;51.374;6.594;2023-07-24T02:06:22;18.20;99.90
22471;DHT22;11402;51.374;6.594;2023-07-24T02:08:48;18.30;99.90
22471;DHT22;11402;51.374;6.594;2023-07-24T02:11:16;18.30;99.90
22471;DHT22;11402;51.374;6.594;2023-07-24T02:13:44;18.30;99.90
22471;DHT22;11402;51.374;6.594;2023-07-24T02:16:10;18.20;99.90
22471;DHT22;11402;51.374;6.594;2023-07-24T02:18:37;18.30;99.90
22471;DHT22;11402;51.374;6.594;2023-07-24T02:21:03;18.20;99.90
22471;DHT22;11402;51.374;6.594;2023-07-24T02:23:29;18.10;99.90
22471;DHT22;11402;51.374;6.594;2023-07-24T02:25:54;18.10;99.90
22471;DHT22;11402;51.374;6.594;2023-07-24T02:28:20;18.20;99.90
22471;DHT22;11402;51.374;6.594;2023-07-24T02:30:47;18.20;99.90
22471;DHT22;11402;51.374;6.594;2023-07-24T02:33:13;18.30;99.90
22471;DHT22;11402;51.374;6.594;2023-07-24T02:35:39;18.50;99.90
22471;DHT22;11402;51.374;6.594;2023-07-24T02:38:05;18.40;99.90
22471;DHT22;11402;51.374;6.594;2023-07-24T02:40:31;18.40;99.90
22471;DHT22;11402;51.374;6.594;2023-07-24T02:42:56;18.50;99.90
22471;DHT22;11402;51.374;6.594;2023-07-24T02:45:22;18.40;99.90
22471;DHT22;11402;51.374;6.594;2023-07-24T02:47:47;18.30;99.90
22471;DHT22;11402;51.374;6.594;2023-07-24T02:50:13;18.30;99.90
22471;DHT22;11402;51.374;6.594;2023-07-24T02:52:39;18.40;99.90
22471;DHT22;11402;51.374;6.594;2023-07-24T02:55:04;18.50;99.90
22471;DHT22;11402;51.374;6.594;2023-07-24T02:57:30;18.40;99.90
22471;DHT22;11402;51.374;6.594;2023-07-24T02:59:56;18.50;99.90
22471;DHT22;11402;51.374;6.594;2023-07-24T03:02:21;18.60;99.90
22471;DHT22;11402;51.374;6.594;2023-07-24T03:04:47;18.50;99.90
22471;DHT22;11402;51.374;6.594;2023-07-24T03:07:12;18.40;99.90
22471;DHT22;11402;51.374;6.594;2023-07-24T03:09:38;18.30;99.90
22471;DHT22;11402;51.374;6.594;2023-07-24T03:12:04;18.20;99.90
22471;DHT22;11402;51.374;6.594;2023-07-24T03:14:29;18.20;99.90
22471;DHT22;11402;51.374;6.594;2023-07-24T03:16:55;18.20;99.90
22471;DHT22;11402;51.374;6.594;2023-07-24T03:19:20;18.20;99.90
22471;DHT22;11402;51.374;6.594;2023-07-24T03:21:46;18.10;99.90
22471;DHT22;11402;51.374;6.594;2023-07-24T03:24:12;18.10;99.90
22471;DHT22;11402;51.374;6.594;2023-07-24T03:26:37;18.10;99.90
22471;DHT22;11402;51.374;6.594;2023-07-24T03:29:04;18.10;99.90
22471;DHT22;11402;51.374;6.594;2023-07-24T03:31:30;18.00;99.90
22471;DHT22;11402;51.374;6.594;2023-07-24T03:33:56;18.00;99.90
22471;DHT22;11402;51.374;6.594;2023-07-24T03:36:21;18.20;99.90
22471;DHT22;11402;51.374;6.594;2023-07-24T03:38:47;18.20;99.90
22471;DHT22;11402;51.374;6.594;2023-07-24T03:41:12;18.00;99.90
22471;DHT22;11402;51.374;6.594;2023-07-24T03:43:38;18.10;99.90
22471;DHT22;11402;51.374;6.594;2023-07-24T03:46:03;18.10;99.90
22471;DHT22;11402;51.374;6.594;2023-07-24T03:48:29;18.20;99.90
22471;DHT22;11402;51.374;6.594;2023-07-24T03:50:58;18.10;99.90
22471;DHT22;11402;51.374;6.594;2023-07-24T03:53:25;18.30;99.90
22471;DHT22;11402;51.374;6.594;2023-07-24T03:55:51;18.10;99.90
22471;DHT22;11402;51.374;6.594;2023-07-24T03:58:16;18.10;99.90
22471;DHT22;11402;51.374;6.594;2023-07-24T04:00:42;18.30;99.90
22471;DHT22;11402;51.374;6.594;2023-07-24T04:03:07;18.30;99.90
22471;DHT22;11402;51.374;6.594;2023-07-24T04:05:34;18.20;99.90
22471;DHT22;11402;51.374;6.594;2023-07-24T04:08:00;18.30;99.90
22471;DHT22;11402;51.374;6.594;2023-07-24T04:10:26;18.40;99.90
22471;DHT22;11402;51.374;6.594;2023-07-24T04:12:51;18.50;99.90
22471;DHT22;11402;51.374;6.594;2023-07-24T04:15:17;18.60;99.90
22471;DHT22;11402;51.374;6.594;2023-07-24T04:17:43;18.60;99.90
22471;DHT22;11402;51.374;6.594;2023-07-24T04:20:09;18.60;99.90
22471;DHT22;11402;51.374;6.594;2023-07-24T04:22:35;18.50;99.90
22471;DHT22;11402;51.374;6.594;2023-07-24T04:25:00;18.40;99.90
22471;DHT22;11402;51.374;6.594;2023-07-24T04:27:26;18.40;99.90
22471;DHT22;11402;51.374;6.594;2023-07-24T04:29:52;18.50;99.90
22471;DHT22;11402;51.374;6.594;2023-07-24T04:32:17;18.40;99.90
22471;DHT22;11402;51.374;6.594;2023-07-24T04:34:43;18.40;99.90
22471;DHT22;11402;51.374;6.594;2023-07-24T04:37:08;18.50;99.90
22471;DHT22;11402;51.374;6.594;2023-07-24T04:39:34;18.40;99.90
22471;DHT22;11402;51.374;6.594;2023-07-24T04:42:00;18.40;99.90
22471;DHT22;11402;51.374;6.594;2023-07-24T04:44:25;18.50;99.90
22471;DHT22;11402;51.374;6.594;2023-07-24T04:46:51;18.60;99.90
22471;DHT22;11402;51.374;6.594;2023-07-24T04:49:17;18.70;99.90
22471;DHT22;11402;51.374;6.594;2023-07-24T04:51:42;18.70;99.90
22471;DHT22;11402;51.374;6.594;2023-07-24T04:54:08;18.70;99.90
22471;DHT22;11402;51.374;6.594;2023-07-24T04:56:34;18.80;99.90
22471;DHT22;11402;51.374;6.594;2023-07-24T04:58:59;18.80;99.90
22471;DHT22;11402;51.374;6.594;2023-07-24T05:01:25;19.10;99.90
22471;DHT22;11402;51.374;6.594;2023-07-24T05:03:50;19.10;99.90
22471;DHT22;11402;51.374;6.594;2023-07-24T05:06:16;18.80;99.90
22471;DHT22;11402;51.374;6.594;2023-07-24T05:08:42;18.80;99.90
22471;DHT22;11402;51.374;6.594;2023-07-24T05:11:07;18.90;99.90
22471;DHT22;11402;51.374;6.594;2023-07-24T05:13:33;18.90;99.90
22471;DHT22;11402;51.374;6.594;2023-07-24T05:15:58;18.70;99.90
22471;DHT22;11402;51.374;6.594;2023-07-24T05:18:24;18.90;99.90
22471;DHT22;11402;51.374;6.594;2023-07-24T05:20:49;19.00;99.90
22471;DHT22;11402;51.374;6.594;2023-07-24T05:23:18;18.80;99.90
22471;DHT22;11402;51.374;6.594;2023-07-24T05:25:44;18.80;99.90
22471;DHT22;11402;51.374;6.594;2023-07-24T05:28:09;18.80;99.90
22471;DHT22;11402;51.374;6.594;2023-07-24T05:30:35;18.90;99.90
22471;DHT22;11402;51.374;6.594;2023-07-24T05:33:01;18.80;99.90
22471;DHT22;11402;51.374;6.594;2023-07-24T05:35:27;18.90;99.90
22471;DHT22;11402;51.374;6.594;2023-07-24T05:37:52;18.90;99.90
22471;DHT22;11402;51.374;6.594;2023-07-24T05:40:18;19.00;99.90
22471;DHT22;11402;51.374;6.594;2023-07-24T05:42:44;19.10;99.90
22471;DHT22;11402;51.374;6.594;2023-07-24T05:45:10;19.20;99.90
22471;DHT22;11402;51.374;6.594;2023-07-24T05:47:40;19.20;99.90
22471;DHT22;11402;51.374;6.594;2023-07-24T05:50:06;19.20;99.90
22471;DHT22;11402;51.374;6.594;2023-07-24T05:52:31;19.20;99.90
22471;DHT22;11402;51.374;6.594;2023-07-24T05:54:57;19.30;99.90
22471;DHT22;11402;51.374;6.594;2023-07-24T05:57:22;19.30;99.90
22471;DHT22;11402;51.374;6.594;2023-07-24T05:59:48;19.20;99.90
22471;DHT22;11402;51.374;6.594;2023-07-24T06:02:15;19.10;99.90
22471;DHT22;11402;51.374;6.594;2023-07-24T06:04:41;19.10;99.90
22471;DHT22;11402;51.374;6.594;2023-07-24T06:07:06;19.20;99.90
22471;DHT22;11402;51.374;6.594;2023-07-24T06:09:32;19.30;99.90
22471;DHT22;11402;51.374;6.594;2023-07-24T06:11:57;19.30;99.90
22471;DHT22;11402;51.374;6.594;2023-07-24T06:14:23;18.80;99.90
22471;DHT22;11402;51.374;6.594;2023-07-24T06:16:48;19.30;99.90
22471;DHT22;11402;51.374;6.594;2023-07-24T06:19:14;19.70;99.90
22471;DHT22;11402;51.374;6.594;2023-07-24T06:21:40;19.60;99.90
22471;DHT22;11402;51.374;6.594;2023-07-24T06:24:06;19.60;99.90
22471;DHT22;11402;51.374;6.594;2023-07-24T06:26:37;19.50;99.90
22471;DHT22;11402;51.374;6.594;2023-07-24T06:29:02;19.40;99.90
22471;DHT22;11402;51.374;6.594;2023-07-24T06:31:28;19.50;99.90
22471;DHT22;11402;51.374;6.594;2023-07-24T06:33:53;19.60;99.90
22471;DHT22;11402;51.374;6.594;2023-07-24T06:36:19;19.60;99.90
22471;DHT22;11402;51.374;6.594;2023-07-24T06:38:45;19.70;99.90
22471;DHT22;11402;51.374;6.594;2023-07-24T06:41:12;19.80;99.90
22471;DHT22;11402;51.374;6.594;2023-07-24T06:43:38;19.90;99.90
22471;DHT22;11402;51.374;6.594;2023-07-24T06:46:03;19.80;99.90
22471;DHT22;11402;51.374;6.594;2023-07-24T06:48:29;19.80;99.90
22471;DHT22;11402;51.374;6.594;2023-07-24T06:50:55;19.90;99.90
22471;DHT22;11402;51.374;6.594;2023-07-24T06:53:20;19.80;99.90
22471;DHT22;11402;51.374;6.594;2023-07-24T06:55:46;19.80;99.90
22471;DHT22;11402;51.374;6.594;2023-07-24T06:58:11;19.80;99.90
22471;DHT22;11402;51.374;6.594;2023-07-24T07:00:37;19.80;99.90
22471;DHT22;11402;51.374;6.594;2023-07-24T07:03:02;19.80;99.90
22471;DHT22;11402;51.374;6.594;2023-07-24T07:05:28;19.90;99.90
22471;DHT22;11402;51.374;6.594;2023-07-24T07:07:53;19.90;99.90
22471;DHT22;11402;51.374;6.594;2023-07-24T07:10:19;19.90;99.90
22471;DHT22;11402;51.374;6.594;2023-07-24T07:12:45;19.90;99.90
22471;DHT22;11402;51.374;6.594;2023-07-24T07:15:10;19.90;99.90
22471;DHT22;11402;51.374;6.594;2023-07-24T07:17:36;19.80;99.90
22471;DHT22;11402;51.374;6.594;2023-07-24T07:20:02;19.70;99.90
22471;DHT22;11402;51.374;6.594;2023-07-24T07:22:27;19.80;99.90
22471;DHT22;11402;51.374;6.594;2023-07-24T07:24:53;19.90;99.90
22471;DHT22;11402;51.374;6.594;2023-07-24T07:27:18;19.90;99.90
22471;DHT22;11402;51.374;6.594;2023-07-24T07:29:44;19.80;99.90
22471;DHT22;11402;51.374;6.594;2023-07-24T07:32:10;19.70;99.90
22471;DHT22;11402;51.374;6.594;2023-07-24T07:34:35;19.80;99.90
22471;DHT22;11402;51.374;6.594;2023-07-24T07:37:04;19.80;99.90
22471;DHT22;11402;51.374;6.594;2023-07-24T07:39:30;19.80;99.90
22471;DHT22;11402;51.374;6.594;2023-07-24T07:41:55;19.80;99.90
22471;DHT22;11402;51.374;6.594;2023-07-24T07:44:21;19.70;99.90
22471;DHT22;11402;51.374;6.594;2023-07-24T07:46:47;19.90;99.90
22471;DHT22;11402;51.374;6.594;2023-07-24T07:49:13;20.00;99.90
22471;DHT22;11402;51.374;6.594;2023-07-24T07:51:38;20.00;99.90
22471;DHT22;11402;51.374;6.594;2023-07-24T07:54:04;20.20;99.90
22471;DHT22;11402;51.374;6.594;2023-07-24T07:56:30;20.20;99.90
22471;DHT22;11402;51.374;6.594;2023-07-24T07:58:55;20.30;99.90
22471;DHT22;11402;51.374;6.594;2023-07-24T08:01:21;20.30;99.90
22471;DHT22;11402;51.374;6.594;2023-07-24T08:03:46;20.20;99.90
22471;DHT22;11402;51.374;6.594;2023-07-24T08:06:12;20.30;99.90
22471;DHT22;11402;51.374;6.594;2023-07-24T08:08:38;20.10;99.90
22471;DHT22;11402;51.374;6.594;2023-07-24T08:11:07;20.20;99.90
22471;DHT22;11402;51.374;6.594;2023-07-24T08:13:33;20.30;99.90
22471;DHT22;11402;51.374;6.594;2023-07-24T08:15:59;20.30;99.90
22471;DHT22;11402;51.374;6.594;2023-07-24T08:18:25;20.30;99.90
22471;DHT22;11402;51.374;6.594;2023-07-24T08:20:51;20.30;99.90
22471;DHT22;11402;51.374;6.594;2023-07-24T08:23:16;20.30;99.90
22471;DHT22;11402;51.374;6.594;2023-07-24T08:25:55;20.40;99.90
22471;DHT22;11402;51.374;6.594;2023-07-24T08:28:20;20.50;99.90
22471;DHT22;11402;51.374;6.594;2023-07-24T08:30:55;20.70;99.90
22471;DHT22;11402;51.374;6.594;2023-07-24T08:33:21;20.70;99.90
22471;DHT22;11402;51.374;6.594;2023-07-24T08:35:46;20.80;99.90
22471;DHT22;11402;51.374;6.594;2023-07-24T08:38:12;20.80;99.90
22471;DHT22;11402;51.374;6.594;2023-07-24T08:40:37;20.90;99.90
22471;DHT22;11402;51.374;6.594;2023-07-24T08:43:04;20.90;99.90
22471;DHT22;11402;51.374;6.594;2023-07-24T08:45:31;20.80;99.90
22471;DHT22;11402;51.374;6.594;2023-07-24T08:47:58;20.90;99.90
22471;DHT22;11402;51.374;6.594;2023-07-24T08:50:25;20.90;99.90
22471;DHT22;11402;51.374;6.594;2023-07-24T08:52:51;21.10;99.90
22471;DHT22;11402;51.374;6.594;2023-07-24T08:55:17;21.10;99.90
22471;DHT22;11402;51.374;6.594;2023-07-24T08:57:43;21.00;99.90
22471;DHT22;11402;51.374;6.594;2023-07-24T09:00:10;21.10;99.90
22471;DHT22;11402;51.374;6.594;2023-07-24T09:02:36;21.20;99.90
22471;DHT22;11402;51.374;6.594;2023-07-24T09:05:02;21.20;99.90
22471;DHT22;11402;51.374;6.594;2023-07-24T09:09:57;21.50;99.90
22471;DHT22;11402;51.374;6.594;2023-07-24T09:12:23;21.50;99.90
22471;DHT22;11402;51.374;6.594;2023-07-24T09:14:59;21.40;99.90
22471;DHT22;11402;51.374;6.594;2023-07-24T09:17:25;21.30;99.90
22471;DHT22;11402;51.374;6.594;2023-07-24T09:19:56;21.20;99.90
22471;DHT22;11402;51.374;6.594;2023-07-24T09:22:21;21.20;99.90
22471;DHT22;11402;51.374;6.594;2023-07-24T09:24:51;21.20;99.90
22471;DHT22;11402;51.374;6.594;2023-07-24T09:27:17;21.40;99.90
22471;DHT22;11402;51.374;6.594;2023-07-24T09:29:43;21.30;99.90
22471;DHT22;11402;51.374;6.594;2023-07-24T09:32:19;21.20;99.90
22471;DHT22;11402;51.374;6.594;2023-07-24T09:34:46;21.30;99.90
22471;DHT22;11402;51.374;6.594;2023-07-24T09:37:21;21.30;99.90
22471;DHT22;11402;51.374;6.594;2023-07-24T09:39:47;21.40;99.90
22471;DHT22;11402;51.374;6.594;2023-07-24T09:42:12;21.30;99.90
22471;DHT22;11402;51.374;6.594;2023-07-24T09:44:38;21.40;99.90
22471;DHT22;11402;51.374;6.594;2023-07-24T09:47:04;21.50;99.90
22471;DHT22;11402;51.374;6.594;2023-07-24T09:49:30;21.50;99.90
22471;DHT22;11402;51.374;6.594;2023-07-24T09:51:57;21.50;99.90
22471;DHT22;11402;51.374;6.594;2023-07-24T09:54:33;21.60;99.90
22471;DHT22;11402;51.374;6.594;2023-07-24T09:57:00;22.00;99.90
22471;DHT22;11402;51.374;6.594;2023-07-24T09:59:27;21.90;99.90
22471;DHT22;11402;51.374;6.594;2023-07-24T10:01:54;21.90;99.90
22471;DHT22;11402;51.374;6.594;2023-07-24T10:04:20;22.20;99.90
22471;DHT22;11402;51.374;6.594;2023-07-24T10:06:47;22.20;99.90
22471;DHT22;11402;51.374;6.594;2023-07-24T10:09:12;22.00;99.90
22471;DHT22;11402;51.374;6.594;2023-07-24T10:11:38;22.30;99.90
22471;DHT22;11402;51.374;6.594;2023-07-24T10:14:04;22.10;99.90
22471;DHT22;11402;51.374;6.594;2023-07-24T10:16:30;23.30;99.90
22471;DHT22;11402;51.374;6.594;2023-07-24T10:18:55;22.00;99.90
22471;DHT22;11402;51.374;6.594;2023-07-24T10:21:27;21.80;99.90
22471;DHT22;11402;51.374;6.594;2023-07-24T10:23:53;21.70;99.90
22471;DHT22;11402;51.374;6.594;2023-07-24T10:26:25;21.40;99.90
22471;DHT22;11402;51.374;6.594;2023-07-24T10:28:51;21.20;99.90
22471;DHT22;11402;51.374;6.594;2023-07-24T10:31:22;21.20;99.90
22471;DHT22;11402;51.374;6.594;2023-07-24T10:33:48;21.30;99.90
22471;DHT22;11402;51.374;6.594;2023-07-24T10:36:18;20.90;99.90
22471;DHT22;11402;51.374;6.594;2023-07-24T10:38:46;21.00;99.90
22471;DHT22;11402;51.374;6.594;2023-07-24T10:41:12;21.00;99.90
22471;DHT22;11402;51.374;6.594;2023-07-24T10:43:45;21.00;99.90
22471;DHT22;11402;51.374;6.594;2023-07-24T10:46:11;21.00;99.90
22471;DHT22;11402;51.374;6.594;2023-07-24T10:48:37;20.80;99.90
22471;DHT22;11402;51.374;6.594;2023-07-24T10:51:07;20.70;99.90
22471;DHT22;11402;51.374;6.594;2023-07-24T10:53:37;20.70;99.90
22471;DHT22;11402;51.374;6.594;2023-07-24T10:56:04;20.70;99.90
22471;DHT22;11402;51.374;6.594;2023-07-24T10:58:31;20.40;99.90
22471;DHT22;11402;51.374;6.594;2023-07-24T11:00:56;20.60;99.90
22471;DHT22;11402;51.374;6.594;2023-07-24T11:03:24;20.60;99.90
22471;DHT22;11402;51.374;6.594;2023-07-24T11:05:52;20.40;99.90
22471;DHT22;11402;51.374;6.594;2023-07-24T11:08:20;20.40;99.90
22471;DHT22;11402;51.374;6.594;2023-07-24T11:13:16;20.30;99.90
22471;DHT22;11402;51.374;6.594;2023-07-24T11:15:41;19.80;99.90
22471;DHT22;11402;51.374;6.594;2023-07-24T11:18:07;19.80;99.90
22471;DHT22;11402;51.374;6.594;2023-07-24T11:23:10;20.00;99.90
22471;DHT22;11402;51.374;6.594;2023-07-24T11:25:36;20.00;99.90
22471;DHT22;11402;51.374;6.594;2023-07-24T11:28:02;20.20;99.90
22471;DHT22;11402;51.374;6.594;2023-07-24T11:30:30;20.20;99.90
22471;DHT22;11402;51.374;6.594;2023-07-24T11:32:57;20.20;99.90
22471;DHT22;11402;51.374;6.594;2023-07-24T11:35:25;20.00;99.90
22471;DHT22;11402;51.374;6.594;2023-07-24T11:37:51;20.00;99.90
22471;DHT22;11402;51.374;6.594;2023-07-24T11:40:16;20.00;99.90
22471;DHT22;11402;51.374;6.594;2023-07-24T11:42:46;20.10;99.90
22471;DHT22;11402;51.374;6.594;2023-07-24T11:45:12;20.20;99.90
22471;DHT22;11402;51.374;6.594;2023-07-24T11:47:46;20.40;99.90
22471;DHT22;11402;51.374;6.594;2023-07-24T11:50:12;20.50;99.90
22471;DHT22;11402;51.374;6.594;2023-07-24T11:52:42;20.70;99.90
22471;DHT22;11402;51.374;6.594;2023-07-24T11:55:12;20.80;99.90
22471;DHT22;11402;51.374;6.594;2023-07-24T11:57:39;20.80;99.90
22471;DHT22;11402;51.374;6.594;2023-07-24T12:00:05;20.90;99.90
22471;DHT22;11402;51.374;6.594;2023-07-24T12:02:34;20.90;99.90
22471;DHT22;11402;51.374;6.594;2023-07-24T12:05:00;21.30;99.90
22471;DHT22;11402;51.374;6.594;2023-07-24T12:07:34;20.80;99.90
22471;DHT22;11402;51.374;6.594;2023-07-24T12:10:01;21.60;99.90
22471;DHT22;11402;51.374;6.594;2023-07-24T12:12:37;21.70;99.90
22471;DHT22;11402;51.374;6.594;2023-07-24T12:15:03;21.80;99.90
22471;DHT22;11402;51.374;6.594;2023-07-24T12:17:29;21.80;99.90
22471;DHT22;11402;51.374;6.594;2023-07-24T12:19:54;21.50;99.90
22471;DHT22;11402;51.374;6.594;2023-07-24T12:22:20;21.50;99.90
22471;DHT22;11402;51.374;6.594;2023-07-24T12:24:45;21.80;99.90
22471;DHT22;11402;51.374;6.594;2023-07-24T12:27:11;21.80;99.90
22471;DHT22;11402;51.374;6.594;2023-07-24T12:29:37;21.70;99.90
22471;DHT22;11402;51.374;6.594;2023-07-24T12:32:02;21.80;99.90
22471;DHT22;11402;51.374;6.594;2023-07-24T12:34:28;21.70;99.90
22471;DHT22;11402;51.374;6.594;2023-07-24T12:36:54;21.90;99.90
22471;DHT22;11402;51.374;6.594;2023-07-24T12:39:19;21.80;99.90
22471;DHT22;11402;51.374;6.594;2023-07-24T12:41:45;21.80;99.90
22471;DHT22;11402;51.374;6.594;2023-07-24T12:44:11;21.80;99.90
22471;DHT22;11402;51.374;6.594;2023-07-24T12:46:36;21.90;99.90
22471;DHT22;11402;51.374;6.594;2023-07-24T12:49:02;21.90;99.90
22471;DHT22;11402;51.374;6.594;2023-07-24T12:51:27;22.00;99.90
22471;DHT22;11402;51.374;6.594;2023-07-24T12:53:53;22.10;99.90
22471;DHT22;11402;51.374;6.594;2023-07-24T12:56:19;22.10;99.90
22471;DHT22;11402;51.374;6.594;2023-07-24T12:58:44;22.10;99.90
22471;DHT22;11402;51.374;6.594;2023-07-24T13:01:10;22.10;99.90
22471;DHT22;11402;51.374;6.594;2023-07-24T13:03:35;22.20;99.90
22471;DHT22;11402;51.374;6.594;2023-07-24T13:06:01;22.40;99.90
22471;DHT22;11402;51.374;6.594;2023-07-24T13:08:26;22.40;99.90
22471;DHT22;11402;51.374;6.594;2023-07-24T13:10:52;22.50;99.90
22471;DHT22;11402;51.374;6.594;2023-07-24T13:13:17;22.50;99.90
22471;DHT22;11402;51.374;6.594;2023-07-24T13:15:43;22.10;99.90
22471;DHT22;11402;51.374;6.594;2023-07-24T13:18:09;21.90;99.90
22471;DHT22;11402;51.374;6.594;2023-07-24T13:20:34;21.80;99.90
22471;DHT22;11402;51.374;6.594;2023-07-24T13:23:00;21.90;99.90
22471;DHT22;11402;51.374;6.594;2023-07-24T13:25:25;22.10;99.90
22471;DHT22;11402;51.374;6.594;2023-07-24T13:27:51;22.20;99.90
22471;DHT22;11402;51.374;6.594;2023-07-24T13:30:18;22.30;99.90
22471;DHT22;11402;51.374;6.594;2023-07-24T13:32:43;21.90;99.90
22471;DHT22;11402;51.374;6.594;2023-07-24T13:35:09;21.90;99.90
22471;DHT22;11402;51.374;6.594;2023-07-24T13:37:35;22.00;99.90
22471;DHT22;11402;51.374;6.594;2023-07-24T13:40:00;22.00;99.90
22471;DHT22;11402;51.374;6.594;2023-07-24T13:42:26;22.00;99.90
22471;DHT22;11402;51.374;6.594;2023-07-24T13:44:51;21.90;99.90
22471;DHT22;11402;51.374;6.594;2023-07-24T13:47:17;22.10;99.90
22471;DHT22;11402;51.374;6.594;2023-07-24T13:49:42;22.30;99.90
22471;DHT22;11402;51.374;6.594;2023-07-24T13:52:08;22.30;99.90
22471;DHT22;11402;51.374;6.594;2023-07-24T13:54:34;22.20;99.90
22471;DHT22;11402;51.374;6.594;2023-07-24T13:56:59;22.20;99.90
22471;DHT22;11402;51.374;6.594;2023-07-24T13:59:25;22.20;99.90
22471;DHT22;11402;51.374;6.594;2023-07-24T14:01:50;22.20;99.90
22471;DHT22;11402;51.374;6.594;2023-07-24T14:04:16;22.20;99.90
22471;DHT22;11402;51.374;6.594;2023-07-24T14:06:42;22.10;99.90
22471;DHT22;11402;51.374;6.594;2023-07-24T14:09:07;22.20;99.90
22471;DHT22;11402;51.374;6.594;2023-07-24T14:11:33;22.10;99.90
22471;DHT22;11402;51.374;6.594;2023-07-24T14:13:58;21.90;99.90
22471;DHT22;11402;51.374;6.594;2023-07-24T14:16:24;21.90;99.90
22471;DHT22;11402;51.374;6.594;2023-07-24T14:18:49;21.80;99.90
22471;DHT22;11402;51.374;6.594;2023-07-24T14:21:15;21.80;99.90
22471;DHT22;11402;51.374;6.594;2023-07-24T14:23:40;21.90;99.90
22471;DHT22;11402;51.374;6.594;2023-07-24T14:26:06;21.80;99.90
22471;DHT22;11402;51.374;6.594;2023-07-24T14:28:32;21.80;99.90
22471;DHT22;11402;51.374;6.594;2023-07-24T14:30:58;21.90;99.90
22471;DHT22;11402;51.374;6.594;2023-07-24T14:33:23;22.00;99.90
22471;DHT22;11402;51.374;6.594;2023-07-24T14:35:49;22.10;99.90
22471;DHT22;11402;51.374;6.594;2023-07-24T14:38:15;22.30;99.90
22471;DHT22;11402;51.374;6.594;2023-07-24T14:40:40;22.40;99.90
22471;DHT22;11402;51.374;6.594;2023-07-24T14:43:06;22.30;99.90
22471;DHT22;11402;51.374;6.594;2023-07-24T14:45:32;22.50;99.90
22471;DHT22;11402;51.374;6.594;2023-07-24T14:47:57;22.40;99.90
22471;DHT22;11402;51.374;6.594;2023-07-24T14:50:23;22.30;99.90
22471;DHT22;11402;51.374;6.594;2023-07-24T14:52:48;22.40;99.90
22471;DHT22;11402;51.374;6.594;2023-07-24T14:55:14;22.20;99.90
22471;DHT22;11402;51.374;6.594;2023-07-24T14:57:40;22.20;99.90
22471;DHT22;11402;51.374;6.594;2023-07-24T15:00:07;22.20;99.90
22471;DHT22;11402;51.374;6.594;2023-07-24T15:02:33;22.30;99.90
22471;DHT22;11402;51.374;6.594;2023-07-24T15:04:59;22.20;99.90
22471;DHT22;11402;51.374;6.594;2023-07-24T15:07:25;22.10;99.90
22471;DHT22;11402;51.374;6.594;2023-07-24T15:09:50;22.10;99.90
22471;DHT22;11402;51.374;6.594;2023-07-24T15:12:16;22.40;99.90
22471;DHT22;11402;51.374;6.594;2023-07-24T15:14:41;22.40;99.90
22471;DHT22;11402;51.374;6.594;2023-07-24T15:17:07;22.10;99.90
22471;DHT22;11402;51.374;6.594;2023-07-24T15:19:33;21.90;99.90
22471;DHT22;11402;51.374;6.594;2023-07-24T15:21:58;21.70;99.90
22471;DHT22;11402;51.374;6.594;2023-07-24T15:24:24;21.70;99.90
22471;DHT22;11402;51.374;6.594;2023-07-24T15:26:49;21.80;99.90
22471;DHT22;11402;51.374;6.594;2023-07-24T15:29:15;21.80;99.90
22471;DHT22;11402;51.374;6.594;2023-07-24T15:31:40;21.60;99.90
22471;DHT22;11402;51.374;6.594;2023-07-24T15:34:07;21.50;99.90